Time;durP1;ratioP1;P1;durP2;ratioP2;P2;SDS_P1;SDS_P2;PMS_P1;PMS_P2;Temp;Humidity;BMP_temperature;BMP_pressure;BME280_temperature;BME280_humidity;BME280_pressure;Samples;Min_cycle;Max_cycle;Signal;HPM_P1;HPM_P2
2021/12/15 00:01:15;;;;;;;0.35;0.10;;;;;;;;;;4200388;28;20090;-33
2021/12/15 00:03:16;;;;;;;0.30;0.20;;;;;;;;;;4200291;28;20082;-34
2021/12/15 00:05:23;;;;;;;0.20;0.20;;;;;;;;;;4200666;28;20110;-34
2021/12/15 00:07:25;;;;;;;0.52;0.20;;;;;;;;;;4199979;28;20052;-34
2021/12/15 00:09:27;;;;;;;0.20;0.10;;;;;;;;;;4200292;28;20098;-34
2021/12/15 00:11:35;;;;;;;0.32;0.10;;;;;;;;;;4200170;28;20102;-35
2021/12/15 00:13:37;;;;;;;0.20;0.20;;;;;;;;;;4200229;28;20059;-35
2021/12/15 00:15:39;;;;;;;0.25;0.20;;;;;;;;;;4200372;28;20044;-34
2021/12/15 00:17:40;;;;;;;0.10;0.10;;;;;;;;;;4200074;28;20386;-34
2021/12/15 00:19:41;;;;;;;0.20;0.17;;;;;;;;;;4200360;28;20102;-33
2021/12/15 00:21:42;;;;;;;0.55;0.10;;;;;;;;;;4199466;28;20546;-34
2021/12/15 00:23:45;;;;;;;0.20;0.10;;;;;;;;;;4199644;28;20057;-34
2021/12/15 00:25:46;;;;;;;0.13;0.13;;;;;;;;;;4200276;28;20056;-35
2021/12/15 00:27:47;;;;;;;0.85;0.28;;;;;;;;;;4199842;28;20060;-34
2021/12/15 00:29:50;;;;;;;0.70;0.20;;;;;;;;;;4199846;28;20530;-35
2021/12/15 00:31:52;;;;;;;0.30;0.20;;;;;;;;;;4199923;28;20055;-35
2021/12/15 00:33:53;;;;;;;0.20;0.20;;;;;;;;;;4199625;28;20435;-34
2021/12/15 00:35:55;;;;;;;0.65;0.30;;;;;;;;;;4199959;28;20059;-33
2021/12/15 00:37:56;;;;;;;0.10;0.10;;;;;;;;;;4198264;28;20059;-34
2021/12/15 00:39:59;;;;;;;0.43;0.20;;;;;;;;;;4199915;28;20040;-34
2021/12/15 00:42:00;;;;;;;0.57;0.10;;;;;;;;;;4198418;28;20094;-34
2021/12/15 00:44:01;;;;;;;0.20;0.10;;;;;;;;;;4199915;28;20105;-36
2021/12/15 00:46:03;;;;;;;0.30;0.20;;;;;;;;;;4199733;28;20585;-34
2021/12/15 00:48:04;;;;;;;0.55;0.15;;;;;;;;;;4199457;28;20060;-34
2021/12/15 00:50:07;;;;;;;0.40;0.20;;;;;;;;;;4199944;28;20056;-33
2021/12/15 00:52:08;;;;;;;0.70;0.20;;;;;;;;;;4199283;28;20104;-34
2021/12/15 00:54:10;;;;;;;0.20;0.10;;;;;;;;;;4198478;28;20090;-34
2021/12/15 00:56:11;;;;;;;0.30;0.20;;;;;;;;;;4199744;28;20067;-34
2021/12/15 00:58:12;;;;;;;0.20;0.20;;;;;;;;;;4199347;28;20059;-34
2021/12/15 01:00:25;;;;;;;0.32;0.10;;;;;;;;;;4198226;28;20491;-34
2021/12/15 01:02:27;;;;;;;0.47;0.20;;;;;;;;;;4197627;28;20362;-35
2021/12/15 01:04:29;;;;;;;0.28;0.10;;;;;;;;;;4199456;28;20056;-34
2021/12/15 01:06:33;;;;;;;0.17;0.10;;;;;;;;;;4199641;28;20048;-33
2021/12/15 01:08:41;;;;;;;0.50;0.10;;;;;;;;;;4199407;28;20056;-35
2021/12/15 01:11:29;;;;;;;0.30;0.10;;;;;;;;;;4199372;28;20094;-34
2021/12/15 01:21:53;;;;;;;0.43;0.20;;;;;;;;;;4198677;28;20551;-33
2021/12/15 01:23:54;;;;;;;0.30;0.10;;;;;;;;;;4199060;28;20549;-34
2021/12/15 01:25:58;;;;;;;0.47;0.20;;;;;;;;;;4199053;28;20094;-33
2021/12/15 01:28:00;;;;;;;0.47;0.20;;;;;;;;;;4198807;28;20489;-34
2021/12/15 01:30:03;;;;;;;0.90;0.17;;;;;;;;;;4199018;28;20389;-33
2021/12/15 01:32:05;;;;;;;0.25;0.20;;;;;;;;;;4197705;28;20436;-33
2021/12/15 01:34:06;;;;;;;0.10;0.10;;;;;;;;;;4199183;28;20045;-34
2021/12/15 01:36:07;;;;;;;0.28;0.20;;;;;;;;;;4198970;28;20385;-33
2021/12/15 01:38:09;;;;;;;0.28;0.10;;;;;;;;;;4198722;28;20048;-34
2021/12/15 01:40:17;;;;;;;0.40;0.20;;;;;;;;;;4197601;28;20048;-33
2021/12/15 01:42:18;;;;;;;0.47;0.25;;;;;;;;;;4197535;28;20044;-34
2021/12/15 01:48:42;;;;;;;0.10;0.10;;;;;;;;;;4199032;28;20077;-34
2021/12/15 01:50:44;;;;;;;0.32;0.17;;;;;;;;;;4198686;28;20345;-34
2021/12/15 01:52:45;;;;;;;0.30;0.20;;;;;;;;;;4197014;28;20137;-34
2021/12/15 01:54:49;;;;;;;0.05;0.05;;;;;;;;;;4198729;28;20059;-33
2021/12/15 01:56:50;;;;;;;0.77;0.20;;;;;;;;;;4198311;28;20443;-33
2021/12/15 01:58:52;;;;;;;0.70;0.20;;;;;;;;;;4197259;28;20074;-34
2021/12/15 02:00:56;;;;;;;0.35;0.20;;;;;;;;;;4197182;28;20481;-34
2021/12/15 02:02:58;;;;;;;0.20;0.10;;;;;;;;;;4198681;28;20040;-34
2021/12/15 02:04:59;;;;;;;0.20;0.20;;;;;;;;;;4197302;28;20051;-34
2021/12/15 02:07:01;;;;;;;0.55;0.20;;;;;;;;;;4196960;28;20439;-34
2021/12/15 02:09:03;;;;;;;0.50;0.20;;;;;;;;;;4198429;28;20056;-33
2021/12/15 02:11:04;;;;;;;0.77;0.20;;;;;;;;;;4198247;28;20089;-33
2021/12/15 02:13:07;;;;;;;0.40;0.20;;;;;;;;;;4197792;28;20044;-34
2021/12/15 02:15:11;;;;;;;0.28;0.22;;;;;;;;;;4197013;28;20044;-34
2021/12/15 02:17:12;;;;;;;0.57;0.10;;;;;;;;;;4198176;28;20052;-34
2021/12/15 02:19:13;;;;;;;0.22;0.20;;;;;;;;;;4198339;28;20105;-34
2021/12/15 02:21:19;;;;;;;0.28;0.10;;;;;;;;;;4197169;28;20047;-34
2021/12/15 02:23:22;;;;;;;0.73;0.20;;;;;;;;;;4197773;28;20082;-33
2021/12/15 02:25:24;;;;;;;0.38;0.20;;;;;;;;;;4197072;28;20094;-34
2021/12/15 02:27:31;;;;;;;1.95;0.20;;;;;;;;;;4198173;28;20052;-34
2021/12/15 02:29:37;;;;;;;0.10;0.10;;;;;;;;;;4196853;28;20490;-34
2021/12/15 02:31:55;;;;;;;0.73;0.20;;;;;;;;;;4196783;28;20423;-34
2021/12/15 02:38:41;;;;;;;1.15;0.28;;;;;;;;;;4196357;28;20420;-34
2021/12/15 02:40:42;;;;;;;0.30;0.20;;;;;;;;;;4196606;28;20413;-34
2021/12/15 02:42:45;;;;;;;0.05;0.05;;;;;;;;;;4196318;28;20067;-34
2021/12/15 02:44:46;;;;;;;0.75;0.22;;;;;;;;;;4198065;28;20053;-34
2021/12/15 02:46:48;;;;;;;0.28;0.15;;;;;;;;;;4197693;28;20103;-34
2021/12/15 02:48:50;;;;;;;0.80;0.20;;;;;;;;;;4197790;28;20075;-34
2021/12/15 02:50:51;;;;;;;0.28;0.28;;;;;;;;;;4197819;28;20554;-34
2021/12/15 02:52:53;;;;;;;0.32;0.10;;;;;;;;;;4196045;28;20055;-34
2021/12/15 02:54:54;;;;;;;0.22;0.10;;;;;;;;;;4197903;28;20055;-34
2021/12/15 02:56:57;;;;;;;1.00;0.30;;;;;;;;;;4197616;28;20059;-34
2021/12/15 02:59:02;;;;;;;0.75;0.30;;;;;;;;;;4196423;28;20106;-34
2021/12/15 03:01:18;;;;;;;0.22;0.13;;;;;;;;;;4197892;28;20098;-33
2021/12/15 03:05:35;;;;;;;0.40;0.22;;;;;;;;;;4197703;28;20408;-33
2021/12/15 03:15:30;;;;;;;;;;;;;;;;;;4163066;28;20095;-34
2021/12/15 03:17:31;;;;;;;0.30;0.10;;;;;;;;;;4162531;28;19947;-34
2021/12/15 03:19:32;;;;;;;0.47;0.20;;;;;;;;;;4164595;28;20102;-34
2021/12/15 03:21:33;;;;;;;0.10;0.10;;;;;;;;;;4197295;28;20645;-33
2021/12/15 03:23:38;;;;;;;0.60;0.20;;;;;;;;;;4196790;28;20098;-35
2021/12/15 03:25:39;;;;;;;0.45;0.13;;;;;;;;;;4197091;28;20512;-35
2021/12/15 03:38:56;;;;;;;0.10;0.10;;;;;;;;;;4180675;28;20045;-33
2021/12/15 03:40:57;;;;;;;0.47;0.20;;;;;;;;;;4196158;28;20381;-33
2021/12/15 03:43:00;;;;;;;0.55;0.30;;;;;;;;;;4180659;28;20052;-34
2021/12/15 03:45:03;;;;;;;0.45;0.10;;;;;;;;;;4179507;28;20497;-33
2021/12/15 03:47:07;;;;;;;0.10;0.10;;;;;;;;;;4180492;28;20048;-33
2021/12/15 03:49:08;;;;;;;0.25;0.10;;;;;;;;;;4180930;28;20061;-34
2021/12/15 03:51:12;;;;;;;0.10;0.10;;;;;;;;;;4180750;28;20095;-34
2021/12/15 03:53:14;;;;;;;0.55;0.30;;;;;;;;;;4180219;28;20045;-34
2021/12/15 03:55:20;;;;;;;0.25;0.13;;;;;;;;;;4180664;28;20040;-34
2021/12/15 03:57:21;;;;;;;0.45;0.20;;;;;;;;;;4180563;28;20397;-33
2021/12/15 03:59:24;;;;;;;0.00;0.00;;;;;;;;;;4192560;28;20053;-34
2021/12/15 04:01:25;;;;;;;0.68;0.25;;;;;;;;;;4212554;28;20066;-33
2021/12/15 04:03:30;;;;;;;0.60;0.25;;;;;;;;;;4211296;28;20051;-32
2021/12/15 04:05:31;;;;;;;0.25;0.17;;;;;;;;;;4196049;28;20543;-33
2021/12/15 04:07:32;;;;;;;0.17;0.10;;;;;;;;;;4196126;28;20048;-34
2021/12/15 04:09:33;;;;;;;0.20;0.10;;;;;;;;;;4197062;28;20060;-34
2021/12/15 04:11:36;;;;;;;0.47;0.25;;;;;;;;;;4197202;28;20048;-35
2021/12/15 04:13:37;;;;;;;0.10;0.10;;;;;;;;;;4196943;28;20063;-34
2021/12/15 04:15:46;;;;;;;0.32;0.10;;;;;;;;;;4197018;28;20370;-34
2021/12/15 04:17:48;;;;;;;0.25;0.10;;;;;;;;;;4196972;28;20090;-33
2021/12/15 04:19:49;;;;;;;0.50;0.20;;;;;;;;;;4196993;28;20048;-34
2021/12/15 04:21:50;;;;;;;0.55;0.20;;;;;;;;;;4196331;28;20118;-33
2021/12/15 04:23:55;;;;;;;0.10;0.10;;;;;;;;;;4197000;28;20450;-34
2021/12/15 04:25:58;;;;;;;0.17;0.10;;;;;;;;;;4196582;28;20110;-33
2021/12/15 04:28:03;;;;;;;0.77;0.20;;;;;;;;;;4196612;28;20102;-34
2021/12/15 04:30:05;;;;;;;0.25;0.10;;;;;;;;;;4196988;28;20408;-33
2021/12/15 04:32:12;;;;;;;0.38;0.20;;;;;;;;;;4196786;28;20055;-35
2021/12/15 04:34:13;;;;;;;0.40;0.10;;;;;;;;;;4196844;28;20064;-34
2021/12/15 04:36:15;;;;;;;0.10;0.10;;;;;;;;;;4196572;28;20044;-33
2021/12/15 04:38:16;;;;;;;0.20;0.10;;;;;;;;;;4199222;28;20369;-34
2021/12/15 04:40:19;;;;;;;0.38;0.15;;;;;;;;;;4200053;28;20049;-33
2021/12/15 04:42:22;;;;;;;0.15;0.10;;;;;;;;;;4199714;28;20439;-39
2021/12/15 04:44:25;;;;;;;0.20;0.08;;;;;;;;;;4200028;28;20060;-33
2021/12/15 04:46:28;;;;;;;0.20;0.20;;;;;;;;;;4199737;28;20044;-33
2021/12/15 04:48:29;;;;;;;0.20;0.20;;;;;;;;;;4199655;28;20326;-34
2021/12/15 04:50:31;;;;;;;0.40;0.10;;;;;;;;;;4199564;28;20056;-33
2021/12/15 04:52:32;;;;;;;0.15;0.15;;;;;;;;;;4181696;28;20057;-33
2021/12/15 04:54:33;;;;;;;0.17;0.10;;;;;;;;;;4199415;28;20057;-33
2021/12/15 04:56:35;;;;;;;0.93;0.30;;;;;;;;;;4198229;28;20488;-36
2021/12/15 04:58:36;;;;;;;0.15;0.10;;;;;;;;;;4181887;28;20041;-36
2021/12/15 05:00:40;;;;;;;0.43;0.20;;;;;;;;;;4199500;28;20110;-33
2021/12/15 05:02:41;;;;;;;0.43;0.10;;;;;;;;;;4199345;28;20561;-33
2021/12/15 05:04:43;;;;;;;0.30;0.10;;;;;;;;;;4199441;28;20052;-35
2021/12/15 05:06:44;;;;;;;0.55;0.15;;;;;;;;;;4198096;28;20057;-35
2021/12/15 05:08:45;;;;;;;0.25;0.25;;;;;;;;;;4199234;28;20102;-36
2021/12/15 05:10:47;;;;;;;0.43;0.25;;;;;;;;;;4199415;28;20052;-34
2021/12/15 05:12:48;;;;;;;0.65;0.20;;;;;;;;;;4199287;28;20050;-34
2021/12/15 05:14:50;;;;;;;0.10;0.10;;;;;;;;;;4199434;28;20044;-34
2021/12/15 05:16:52;;;;;;;0.17;0.08;;;;;;;;;;4199244;28;20049;-34
2021/12/15 05:18:54;;;;;;;0.30;0.20;;;;;;;;;;4199430;28;20154;-33
2021/12/15 05:20:58;;;;;;;0.32;0.20;;;;;;;;;;4199463;28;20052;-33
2021/12/15 05:23:01;;;;;;;0.17;0.10;;;;;;;;;;4198715;28;20101;-34
2021/12/15 05:25:03;;;;;;;0.52;0.10;;;;;;;;;;4199385;28;20067;-33
2021/12/15 05:27:12;;;;;;;0.38;0.20;;;;;;;;;;4198999;28;20451;-35
2021/12/15 05:29:13;;;;;;;0.10;0.10;;;;;;;;;;4199157;28;20048;-34
2021/12/15 05:31:14;;;;;;;0.95;0.20;;;;;;;;;;4199351;28;20117;-33
2021/12/15 05:33:15;;;;;;;0.30;0.13;;;;;;;;;;4198669;28;20078;-34
2021/12/15 05:35:21;;;;;;;0.10;0.10;;;;;;;;;;4198919;28;20515;-33
2021/12/15 05:37:23;;;;;;;0.47;0.10;;;;;;;;;;4198574;28;20396;-34
2021/12/15 05:39:24;;;;;;;0.32;0.10;;;;;;;;;;4198835;28;20052;-33
2021/12/15 05:41:25;;;;;;;0.10;0.10;;;;;;;;;;4197918;28;20056;-34
2021/12/15 05:43:26;;;;;;;0.40;0.20;;;;;;;;;;4199040;28;20079;-34
2021/12/15 05:45:29;;;;;;;0.70;0.10;;;;;;;;;;4198844;28;20037;-34
2021/12/15 05:47:30;;;;;;;0.50;0.20;;;;;;;;;;4198729;28;20074;-34
2021/12/15 05:49:32;;;;;;;1.02;0.15;;;;;;;;;;4197707;28;20101;-35
2021/12/15 05:51:33;;;;;;;0.70;0.30;;;;;;;;;;4197549;28;20056;-34
2021/12/15 05:53:34;;;;;;;1.25;0.20;;;;;;;;;;4198111;28;20052;-34
2021/12/15 05:55:36;;;;;;;0.32;0.05;;;;;;;;;;4198811;28;20105;-34
2021/12/15 05:57:37;;;;;;;0.10;0.10;;;;;;;;;;4197454;28;20074;-34
2021/12/15 05:59:38;;;;;;;0.85;0.10;;;;;;;;;;4197240;28;20106;-34
2021/12/15 06:01:40;;;;;;;0.10;0.10;;;;;;;;;;4196989;28;20045;-36
2021/12/15 06:03:41;;;;;;;0.38;0.10;;;;;;;;;;4198245;28;20048;-35
2021/12/15 06:05:43;;;;;;;0.30;0.10;;;;;;;;;;4198425;28;20546;-34
2021/12/15 06:07:44;;;;;;;0.10;0.10;;;;;;;;;;4196639;28;20102;-34
2021/12/15 06:09:45;;;;;;;0.10;0.10;;;;;;;;;;4198432;28;20331;-34
2021/12/15 06:11:49;;;;;;;0.10;0.10;;;;;;;;;;4198213;28;20102;-34
2021/12/15 06:13:52;;;;;;;0.30;0.10;;;;;;;;;;4198180;28;20053;-35
2021/12/15 06:15:54;;;;;;;0.10;0.10;;;;;;;;;;4198594;28;20063;-34
2021/12/15 06:17:57;;;;;;;0.30;0.10;;;;;;;;;;4198115;28;20048;-34
2021/12/15 06:19:59;;;;;;;0.85;0.30;;;;;;;;;;4198050;28;20100;-35
2021/12/15 06:22:00;;;;;;;0.52;0.22;;;;;;;;;;4197573;28;20060;-34
2021/12/15 06:24:01;;;;;;;0.28;0.10;;;;;;;;;;4198163;28;20079;-34
2021/12/15 06:26:03;;;;;;;0.10;0.10;;;;;;;;;;4198061;28;20076;-34
2021/12/15 06:28:04;;;;;;;0.10;0.10;;;;;;;;;;4197883;28;20382;-34
2021/12/15 06:30:06;;;;;;;0.43;0.20;;;;;;;;;;4196959;28;20074;-33
2021/12/15 06:32:07;;;;;;;0.35;0.10;;;;;;;;;;4210911;28;20048;-33
2021/12/15 06:34:08;;;;;;;0.22;0.10;;;;;;;;;;4204835;28;20044;-35
2021/12/15 06:36:10;;;;;;;0.57;0.17;;;;;;;;;;4195340;28;20458;-34
2021/12/15 06:38:11;;;;;;;0.13;0.10;;;;;;;;;;4197088;28;20044;-34
2021/12/15 06:40:12;;;;;;;0.20;0.20;;;;;;;;;;4197510;28;20553;-34
2021/12/15 06:42:13;;;;;;;0.17;0.17;;;;;;;;;;4196268;28;20102;-33
2021/12/15 06:44:16;;;;;;;0.00;0.00;;;;;;;;;;4197525;28;20446;-34
2021/12/15 07:00:04;;;;;;;0.10;0.10;;;;;;;;;;4196833;28;19916;-33
2021/12/15 07:02:05;;;;;;;0.47;0.10;;;;;;;;;;4197057;28;20048;-33
2021/12/15 07:04:06;;;;;;;0.17;0.15;;;;;;;;;;4195956;28;20099;-34
2021/12/15 07:06:07;;;;;;;0.40;0.10;;;;;;;;;;4196002;28;20098;-35
2021/12/15 07:08:09;;;;;;;0.10;0.10;;;;;;;;;;4196492;28;20068;-34
2021/12/15 07:10:11;;;;;;;0.08;0.08;;;;;;;;;;4196997;28;20071;-34
2021/12/15 07:12:12;;;;;;;0.75;0.10;;;;;;;;;;4197115;28;20056;-35
2021/12/15 07:14:13;;;;;;;0.20;0.10;;;;;;;;;;4197032;28;20539;-34
2021/12/15 07:16:15;;;;;;;0.10;0.10;;;;;;;;;;4195779;28;20052;-35
2021/12/15 07:18:26;;;;;;;0.30;0.30;;;;;;;;;;4196083;28;20326;-34
2021/12/15 07:20:32;;;;;;;0.13;0.10;;;;;;;;;;4196734;28;20052;-35
2021/12/15 07:22:52;;;;;;;0.60;0.30;;;;;;;;;;4195149;28;20055;-36
2021/12/15 07:24:53;;;;;;;0.10;0.10;;;;;;;;;;4196850;28;20094;-35
2021/12/15 07:26:54;;;;;;;0.30;0.10;;;;;;;;;;4196904;28;20052;-34
2021/12/15 07:28:55;;;;;;;0.32;0.15;;;;;;;;;;4192585;28;20494;-34
2021/12/15 07:30:56;;;;;;;0.35;0.15;;;;;;;;;;4187081;28;20121;-33
2021/12/15 07:32:58;;;;;;;0.40;0.28;;;;;;;;;;4195750;28;20044;-32
2021/12/15 07:34:59;;;;;;;0.60;0.25;;;;;;;;;;4193647;28;20504;-34
2021/12/15 07:37:00;;;;;;;0.43;0.20;;;;;;;;;;4189872;28;20071;-34
2021/12/15 07:39:01;;;;;;;0.22;0.20;;;;;;;;;;4206291;28;20041;-34
2021/12/15 07:41:04;;;;;;;1.08;0.20;;;;;;;;;;4209435;28;20783;-34
2021/12/15 07:43:07;;;;;;;0.30;0.30;;;;;;;;;;4198986;28;20389;-34
2021/12/15 07:45:10;;;;;;;0.28;0.20;;;;;;;;;;4193400;28;20125;-35
2021/12/15 07:47:11;;;;;;;0.57;0.20;;;;;;;;;;4193509;28;20057;-35
2021/12/15 07:49:13;;;;;;;1.10;0.25;;;;;;;;;;4187100;28;20094;-34
2021/12/15 07:51:14;;;;;;;0.10;0.10;;;;;;;;;;4196094;28;20177;-34
2021/12/15 07:53:16;;;;;;;0.55;0.20;;;;;;;;;;4189557;28;20365;-34
2021/12/15 07:55:18;;;;;;;0.13;0.13;;;;;;;;;;4179723;28;20049;-35
2021/12/15 07:57:20;;;;;;;0.57;0.20;;;;;;;;;;4197438;28;20044;-35
2021/12/15 07:59:22;;;;;;;1.55;0.15;;;;;;;;;;4196787;28;20308;-35
2021/12/15 08:01:24;;;;;;;0.17;0.10;;;;;;;;;;4197968;28;20094;-35
2021/12/15 08:03:26;;;;;;;0.20;0.20;;;;;;;;;;4191084;28;20048;-34
2021/12/15 08:05:27;;;;;;;0.10;0.10;;;;;;;;;;4189755;28;20113;-34
2021/12/15 08:07:28;;;;;;;1.40;0.30;;;;;;;;;;4205458;28;20048;-35
2021/12/15 08:09:30;;;;;;;0.45;0.30;;;;;;;;;;4202744;28;20124;-35
2021/12/15 08:11:31;;;;;;;0.20;0.10;;;;;;;;;;4205122;28;20048;-34
2021/12/15 08:13:33;;;;;;;0.52;0.20;;;;;;;;;;4204772;28;20089;-34
2021/12/15 08:15:34;;;;;;;0.20;0.20;;;;;;;;;;4206821;28;20408;-34
2021/12/15 08:17:36;;;;;;;0.10;0.10;;;;;;;;;;4214328;28;20044;-34
2021/12/15 08:19:37;;;;;;;0.25;0.25;;;;;;;;;;4208089;28;20101;-34
2021/12/15 08:21:38;;;;;;;0.40;0.25;;;;;;;;;;4202840;28;20052;-37
2021/12/15 08:23:40;;;;;;;0.20;0.20;;;;;;;;;;4199648;28;20041;-34
2021/12/15 08:25:41;;;;;;;0.20;0.20;;;;;;;;;;4203891;28;20110;-34
2021/12/15 08:27:43;;;;;;;0.85;0.45;;;;;;;;;;4206976;28;20044;-34
2021/12/15 08:29:44;;;;;;;0.10;0.10;;;;;;;;;;4200692;28;20476;-35
2021/12/15 08:31:45;;;;;;;0.50;0.22;;;;;;;;;;4195684;28;20052;-34
2021/12/15 08:33:46;;;;;;;0.90;0.28;;;;;;;;;;4195996;28;20055;-34
2021/12/15 08:35:56;;;;;;;0.20;0.20;;;;;;;;;;4191380;28;20055;-33
2021/12/15 08:37:57;;;;;;;1.02;0.17;;;;;;;;;;4200649;28;20484;-34
2021/12/15 08:39:58;;;;;;;0.75;0.40;;;;;;;;;;4198371;28;20064;-34
2021/12/15 08:42:00;;;;;;;0.38;0.20;;;;;;;;;;4190707;28;20052;-34
2021/12/15 08:44:06;;;;;;;0.40;0.20;;;;;;;;;;4192998;28;20057;-34
2021/12/15 08:46:09;;;;;;;0.30;0.20;;;;;;;;;;4196328;28;20101;-34
2021/12/15 08:48:10;;;;;;;0.95;0.43;;;;;;;;;;4192826;28;20071;-34
2021/12/15 08:50:12;;;;;;;0.30;0.20;;;;;;;;;;4194874;28;20484;-34
2021/12/15 08:52:14;;;;;;;0.35;0.20;;;;;;;;;;4198318;28;20409;-34
2021/12/15 08:54:17;;;;;;;1.23;0.40;;;;;;;;;;4192701;28;20433;-41
2021/12/15 08:56:19;;;;;;;0.57;0.32;;;;;;;;;;4195978;28;20075;-42
2021/12/15 08:58:21;;;;;;;0.82;0.30;;;;;;;;;;4192142;28;20066;-41
2021/12/15 09:00:25;;;;;;;0.30;0.20;;;;;;;;;;4196707;28;20079;-43
2021/12/15 09:02:26;;;;;;;0.60;0.35;;;;;;;;;;4190783;28;20049;-41
2021/12/15 09:04:27;;;;;;;1.42;0.30;;;;;;;;;;4190631;28;20335;-44
2021/12/15 09:06:28;;;;;;;0.32;0.20;;;;;;;;;;4189623;28;20044;-43
2021/12/15 09:08:30;;;;;;;0.40;0.20;;;;;;;;;;4197312;28;20158;-42
2021/12/15 09:10:32;;;;;;;0.25;0.20;;;;;;;;;;4190565;28;20412;-42
2021/12/15 09:12:33;;;;;;;0.50;0.30;;;;;;;;;;4194375;28;20048;-42
2021/12/15 09:14:34;;;;;;;0.32;0.20;;;;;;;;;;4192760;28;20523;-42
2021/12/15 09:16:35;;;;;;;0.73;0.40;;;;;;;;;;4194990;28;20288;-42
2021/12/15 09:18:37;;;;;;;0.77;0.32;;;;;;;;;;4199213;28;20056;-42
2021/12/15 09:20:40;;;;;;;0.28;0.13;;;;;;;;;;4192630;28;20446;-42
2021/12/15 09:22:41;;;;;;;0.73;0.22;;;;;;;;;;4197239;28;20037;-41
2021/12/15 09:24:42;;;;;;;0.32;0.20;;;;;;;;;;4198322;28;20409;-42
2021/12/15 09:26:43;;;;;;;0.52;0.30;;;;;;;;;;4197535;28;20109;-41
2021/12/15 09:28:45;;;;;;;0.70;0.30;;;;;;;;;;4189032;28;20048;-40
2021/12/15 09:30:47;;;;;;;0.38;0.20;;;;;;;;;;4195363;28;20052;-42
2021/12/15 09:32:48;;;;;;;0.80;0.30;;;;;;;;;;4192746;28;20110;-42
2021/12/15 09:34:49;;;;;;;2.05;0.40;;;;;;;;;;4190158;28;20188;-42
2021/12/15 09:36:52;;;;;;;0.32;0.30;;;;;;;;;;4195133;28;20052;-41
2021/12/15 09:38:54;;;;;;;1.48;0.10;;;;;;;;;;4192692;28;20405;-43
2021/12/15 09:40:58;;;;;;;1.40;0.20;;;;;;;;;;4192168;28;20048;-42
2021/12/15 09:42:59;;;;;;;0.75;0.20;;;;;;;;;;4212011;28;20039;-42
2021/12/15 09:45:15;;;;;;;0.35;0.32;;;;;;;;;;4198165;28;20066;-42
2021/12/15 09:47:34;;;;;;;0.73;0.35;;;;;;;;;;4188705;28;20105;-41
2021/12/15 10:03:52;;;;;;;0.57;0.38;;;;;;;;;;4190068;28;20060;-42
2021/12/15 10:06:04;;;;;;;0.60;0.30;;;;;;;;;;4191932;28;20123;-42
2021/12/15 10:17:53;;;;;;;0.65;0.30;;;;;;;;;;4180217;28;20048;-42
2021/12/15 10:20:03;;;;;;;0.60;0.20;;;;;;;;;;4190870;28;20047;-42
2021/12/15 10:22:05;;;;;;;0.90;0.25;;;;;;;;;;4189172;28;20105;-42
2021/12/15 10:24:10;;;;;;;0.40;0.32;;;;;;;;;;4188347;28;20454;-41
2021/12/15 10:26:11;;;;;;;0.30;0.30;;;;;;;;;;4191939;28;20056;-42
2021/12/15 10:28:14;;;;;;;0.77;0.32;;;;;;;;;;4189664;28;20404;-41
2021/12/15 10:30:25;;;;;;;0.73;0.30;;;;;;;;;;4191712;28;20131;-42
2021/12/15 10:32:31;;;;;;;0.65;0.30;;;;;;;;;;4191216;28;20052;-42
2021/12/15 10:34:32;;;;;;;2.10;0.43;;;;;;;;;;4191711;28;20346;-42
2021/12/15 10:36:33;;;;;;;0.85;0.40;;;;;;;;;;4195336;28;20075;-41
2021/12/15 10:38:39;;;;;;;3.33;0.50;;;;;;;;;;4191666;28;20548;-42
2021/12/15 10:40:41;;;;;;;4.05;0.50;;;;;;;;;;4191024;28;20053;-44
2021/12/15 10:42:43;;;;;;;0.93;0.40;;;;;;;;;;4186686;28;20041;-42
2021/12/15 10:44:44;;;;;;;0.40;0.40;;;;;;;;;;4191601;28;20055;-42
2021/12/15 10:46:49;;;;;;;0.30;0.30;;;;;;;;;;4194425;28;20094;-42
2021/12/15 10:48:50;;;;;;;1.00;0.60;;;;;;;;;;4190706;28;20052;-43
2021/12/15 10:50:52;;;;;;;0.85;0.30;;;;;;;;;;4188705;28;20101;-42
2021/12/15 10:52:58;;;;;;;0.82;0.43;;;;;;;;;;4183810;28;20381;-42
2021/12/15 10:55:03;;;;;;;1.02;0.52;;;;;;;;;;4188373;28;20451;-41
2021/12/15 10:57:08;;;;;;;1.58;0.38;;;;;;;;;;4186141;28;20547;-42
2021/12/15 10:59:10;;;;;;;0.73;0.50;;;;;;;;;;4184563;28;20059;-43
2021/12/15 11:01:30;;;;;;;0.35;0.30;;;;;;;;;;4199469;28;20052;-41
2021/12/15 11:03:35;;;;;;;0.77;0.50;;;;;;;;;;4203002;28;20066;-43
2021/12/15 11:05:36;;;;;;;0.90;0.40;;;;;;;;;;4191783;28;20105;-43
2021/12/15 11:07:54;;;;;;;0.47;0.38;;;;;;;;;;4189830;28;20049;-43
2021/12/15 11:10:16;;;;;;;0.90;0.50;;;;;;;;;;4186452;28;20056;-42
2021/12/15 11:12:19;;;;;;;1.15;0.50;;;;;;;;;;4189404;28;20041;-43
2021/12/15 11:14:24;;;;;;;0.28;0.28;;;;;;;;;;4197591;28;20469;-44
2021/12/15 11:16:29;;;;;;;0.75;0.40;;;;;;;;;;4187661;28;20053;-42
2021/12/15 11:18:35;;;;;;;0.95;0.47;;;;;;;;;;4194464;28;20481;-43
2021/12/15 11:20:38;;;;;;;0.70;0.40;;;;;;;;;;4188781;28;20048;-42
2021/12/15 11:22:43;;;;;;;0.77;0.60;;;;;;;;;;4191426;28;20090;-42
2021/12/15 11:24:44;;;;;;;0.77;0.50;;;;;;;;;;4195255;28;20452;-43
2021/12/15 11:26:45;;;;;;;0.90;0.50;;;;;;;;;;4207452;28;20052;-42
2021/12/15 11:28:49;;;;;;;0.70;0.40;;;;;;;;;;4198793;28;20075;-43
2021/12/15 11:30:50;;;;;;;0.50;0.30;;;;;;;;;;4190741;28;20106;-43
2021/12/15 11:32:53;;;;;;;0.43;0.40;;;;;;;;;;4192103;28;20090;-43
2021/12/15 11:35:16;;;;;;;0.68;0.40;;;;;;;;;;4192209;28;20052;-43
2021/12/15 11:37:36;;;;;;;1.02;0.38;;;;;;;;;;4188525;28;20063;-43
2021/12/15 11:39:40;;;;;;;0.93;0.50;;;;;;;;;;4185714;28;20043;-42
2021/12/15 11:41:43;;;;;;;1.13;0.52;;;;;;;;;;4189951;28;20087;-41
2021/12/15 11:43:55;;;;;;;0.35;0.30;;;;;;;;;;4190670;28;20049;-43
2021/12/15 11:45:57;;;;;;;0.52;0.40;;;;;;;;;;4192173;28;20477;-43
2021/12/15 11:48:32;;;;;;;0.52;0.50;;;;;;;;;;4195478;28;20059;-41
2021/12/15 11:50:37;;;;;;;0.75;0.32;;;;;;;;;;4160599;28;20449;-42
2021/12/15 11:52:43;;;;;;;0.93;0.30;;;;;;;;;;4196442;28;20041;-41
2021/12/15 11:54:48;;;;;;;1.00;0.43;;;;;;;;;;4198128;28;20096;-38
2021/12/15 11:56:54;;;;;;;0.65;0.40;;;;;;;;;;4183268;28;20485;-42
2021/12/15 11:59:14;;;;;;;0.60;0.30;;;;;;;;;;4188713;28;20098;-42
2021/12/15 12:01:34;;;;;;;0.60;0.35;;;;;;;;;;4189954;28;20484;-43
2021/12/15 12:03:35;;;;;;;0.98;0.50;;;;;;;;;;4188915;28;20047;-42
2021/12/15 12:05:37;;;;;;;0.52;0.30;;;;;;;;;;4189682;28;20098;-41
2021/12/15 12:07:41;;;;;;;1.40;0.32;;;;;;;;;;4188778;28;20075;-43
2021/12/15 12:09:45;;;;;;;0.43;0.30;;;;;;;;;;4190123;28;20076;-43
2021/12/15 12:11:54;;;;;;;0.52;0.20;;;;;;;;;;4185921;28;20087;-42
2021/12/15 12:13:59;;;;;;;0.43;0.30;;;;;;;;;;4192069;28;20476;-41
2021/12/15 12:16:05;;;;;;;0.40;0.28;;;;;;;;;;4191098;28;20500;-42
2021/12/15 12:18:08;;;;;;;0.75;0.30;;;;;;;;;;4190653;28;20052;-41
2021/12/15 12:20:11;;;;;;;0.60;0.43;;;;;;;;;;4192595;28;20052;-41
2021/12/15 12:22:13;;;;;;;0.57;0.40;;;;;;;;;;4187005;28;20120;-42
2021/12/15 12:24:17;;;;;;;0.77;0.32;;;;;;;;;;4191785;28;20393;-41
2021/12/15 12:26:26;;;;;;;0.85;0.30;;;;;;;;;;4191674;28;20649;-43
2021/12/15 12:28:29;;;;;;;1.02;0.30;;;;;;;;;;4191271;28;20473;-42
2021/12/15 12:30:33;;;;;;;0.60;0.20;;;;;;;;;;4191585;28;20132;-41
2021/12/15 12:32:34;;;;;;;0.65;0.40;;;;;;;;;;4193390;28;20048;-42
2021/12/15 12:34:35;;;;;;;0.55;0.20;;;;;;;;;;4192389;28;20110;-43
2021/12/15 12:36:37;;;;;;;1.02;0.40;;;;;;;;;;4192494;28;20045;-43
2021/12/15 12:38:40;;;;;;;0.82;0.32;;;;;;;;;;4189846;28;20044;-42
2021/12/15 12:40:59;;;;;;;0.20;0.20;;;;;;;;;;4190256;28;20041;-42
2021/12/15 12:43:15;;;;;;;0.65;0.20;;;;;;;;;;4191190;28;20041;-42
2021/12/15 12:45:19;;;;;;;0.82;0.28;;;;;;;;;;4191457;28;20052;-43
2021/12/15 12:47:32;;;;;;;0.25;0.20;;;;;;;;;;4191336;28;20098;-42
2021/12/15 12:59:24;;;;;;;0.30;0.20;;;;;;;;;;4184664;28;20057;-43
2021/12/15 13:01:32;;;;;;;0.50;0.30;;;;;;;;;;4202884;28;20059;-41
2021/12/15 13:03:36;;;;;;;0.50;0.20;;;;;;;;;;4188137;28;20057;-42
2021/12/15 13:05:38;;;;;;;0.80;0.30;;;;;;;;;;4202568;28;20056;-42
2021/12/15 13:07:45;;;;;;;0.65;0.25;;;;;;;;;;4182222;28;20079;-42
2021/12/15 13:09:51;;;;;;;1.00;0.50;;;;;;;;;;4187950;28;20056;-42
2021/12/15 13:11:52;;;;;;;1.40;0.20;;;;;;;;;;4189092;28;20047;-44
2021/12/15 13:14:04;;;;;;;0.70;0.20;;;;;;;;;;4190874;28;20437;-42
2021/12/15 13:16:08;;;;;;;0.38;0.28;;;;;;;;;;4187694;28;20053;-43
2021/12/15 13:18:13;;;;;;;0.65;0.20;;;;;;;;;;4191123;28;20044;-43
2021/12/15 13:20:36;;;;;;;0.35;0.20;;;;;;;;;;4191042;28;20055;-42
2021/12/15 13:22:57;;;;;;;0.20;0.10;;;;;;;;;;4186373;28;20049;-43
2021/12/15 13:30:02;;;;;;;0.10;0.10;;;;;;;;;;4198370;28;20052;-42
2021/12/15 13:32:03;;;;;;;0.20;0.20;;;;;;;;;;4196623;28;20497;-42
2021/12/15 13:34:05;;;;;;;0.20;0.20;;;;;;;;;;4200326;28;20052;-43
2021/12/15 13:36:21;;;;;;;0.60;0.20;;;;;;;;;;4200186;28;20395;-43
2021/12/15 13:38:34;;;;;;;0.47;0.20;;;;;;;;;;4193906;28;20608;-44
2021/12/15 13:40:49;;;;;;;0.20;0.10;;;;;;;;;;4195291;28;20387;-42
2021/12/15 13:43:02;;;;;;;1.17;0.20;;;;;;;;;;4191333;28;20119;-43
2021/12/15 13:45:04;;;;;;;0.30;0.10;;;;;;;;;;4201219;28;20094;-40
2021/12/15 13:47:09;;;;;;;0.13;0.10;;;;;;;;;;4195942;28;20048;-42
2021/12/15 13:49:09;;;;;;;0.22;0.20;;;;;;;;;;4198103;28;20044;-42
2021/12/15 13:51:10;;;;;;;1.25;0.40;;;;;;;;;;4192147;28;20098;-43
2021/12/15 13:53:13;;;;;;;0.50;0.10;;;;;;;;;;4193270;28;20497;-41